Observation data for Saint Lawrence on 02/21/2019      Previous  Date  Next       Current Mesonet Observations  Soil Data  Daily Summary Page  Observations in Plain Language
KST1 210600Z 15008KT 06/M05 A2988 RMK A01 T00591053  RH  045%=      5-min Rain = 0
KST1 210605Z 15008KT 06/M05 A2987 RMK A01 T00581053  RH  045%=      5-min Rain = 0
KST1 210610Z 15008KT 06/M05 A2987 RMK A01 T00571053  RH  045%=      5-min Rain = 0
KST1 210615Z 15008KT 06/M05 A2987 RMK A01 T00581052  RH  045%=      5-min Rain = 0
KST1 210620Z 15008KT 06/M05 A2988 RMK A01 T00581052  RH  045%=      5-min Rain = 0
KST1 210625Z 15008KT 06/M05 A2987 RMK A01 T00591051  RH  046%=      5-min Rain = 0
KST1 210630Z 15008KT 06/M05 A2987 RMK A01 T00571052  RH  046%=      5-min Rain = 0
KST1 210635Z 15008KT 06/M05 A2987 RMK A01 T00551052  RH  046%=      5-min Rain = 0
KST1 210640Z 15008KT 06/M05 A2988 RMK A01 T00561052  RH  046%=      5-min Rain = 0
KST1 210645Z 15008KT 06/M05 A2988 RMK A01 T00561052  RH  046%=      5-min Rain = 0
KST1 210650Z 15007KT 05/M05 A2988 RMK A01 T00541053  RH  046%=      5-min Rain = 0
KST1 210655Z 15007KT 05/M05 A2988 RMK A01 T00541053  RH  046%=      5-min Rain = 0
KST1 210700Z 15007KT 06/M05 A2988 RMK A01 T00561053  RH  046%=      5-min Rain = 0
KST1 210705Z 16008KT 06/M05 A2988 RMK A01 T00591052  RH  045%=      5-min Rain = 0
KST1 210710Z 15007KT 06/M05 A2988 RMK A01 T00571053  RH  046%=      5-min Rain = 0
KST1 210715Z 16007KT 06/M05 A2988 RMK A01 T00551053  RH  046%=      5-min Rain = 0
KST1 210720Z 15007KT 05/M05 A2988 RMK A01 T00541053  RH  047%=      5-min Rain = 0
KST1 210725Z 16007KT 06/M05 A2988 RMK A01 T00551052  RH  046%=      5-min Rain = 0
KST1 210730Z 15007KT 05/M05 A2987 RMK A01 T00541053  RH  046%=      5-min Rain = 0
KST1 210735Z 15007KT 05/M05 A2987 RMK A01 T00511054  RH  047%=      5-min Rain = 0
KST1 210740Z 16007KT 05/M05 A2987 RMK A01 T00491054  RH  048%=      5-min Rain = 0
KST1 210745Z 15008KT 05/M05 A2987 RMK A01 T00501053  RH  048%=      5-min Rain = 0
KST1 210750Z 16009KT 06/M05 A2987 RMK A01 T00551049  RH  047%=      5-min Rain = 0
KST1 210755Z 16011KT 07/M05 A2986 RMK A01 T00651045  RH  046%=      5-min Rain = 0
KST1 210800Z 16012KT 07/M04 A2986 RMK A01 T00691044  RH  045%=      5-min Rain = 0
KST1 210805Z 16012KT 07/M04 A2986 RMK A01 T00691044  RH  045%=      5-min Rain = 0
KST1 210810Z 15012KT 07/M04 A2986 RMK A01 T00681043  RH  045%=      5-min Rain = 0
KST1 210815Z 15012KT 07/M04 A2986 RMK A01 T00681042  RH  046%=      5-min Rain = 0
KST1 210820Z 16013KT 07/M04 A2986 RMK A01 T00701041  RH  046%=      5-min Rain = 0
KST1 210825Z 16013KT 07/M04 A2985 RMK A01 T00711040  RH  046%=      5-min Rain = 0
KST1 210830Z 16012KT 07/M04 A2985 RMK A01 T00711040  RH  046%=      5-min Rain = 0
KST1 210835Z 15011KT 07/M04 A2985 RMK A01 T00701040  RH  046%=      5-min Rain = 0
KST1 210840Z 15010KT 07/M04 A2985 RMK A01 T00691039  RH  046%=      5-min Rain = 0
KST1 210845Z 15011KT 07/M04 A2985 RMK A01 T00701039  RH  046%=      5-min Rain = 0
KST1 210850Z 15011KT 07/M04 A2985 RMK A01 T00691039  RH  047%=      5-min Rain = 0
KST1 210855Z 15010KT 07/M04 A2985 RMK A01 T00681039  RH  047%=      5-min Rain = 0
KST1 210900Z 15010KT 07/M04 A2985 RMK A01 T00661039  RH  047%=      5-min Rain = 0
KST1 210905Z 15008KT 06/M04 A2985 RMK A01 T00641040  RH  048%=      5-min Rain = 0
KST1 210910Z 15008KT 06/M04 A2985 RMK A01 T00611041  RH  049%=      5-min Rain = 0
KST1 210915Z 15008KT 06/M04 A2985 RMK A01 T00581041  RH  049%=      5-min Rain = 0
KST1 210920Z 16010KT 06/M04 A2985 RMK A01 T00621039  RH  049%=      5-min Rain = 0
KST1 210925Z 16011KT 07/M04 A2985 RMK A01 T00681038  RH  047%=      5-min Rain = 0
KST1 210930Z 16011KT 07/M04 A2985 RMK A01 T00721038  RH  046%=      5-min Rain = 0
KST1 210935Z 16011KT 08/M04 A2984 RMK A01 T00751038  RH  045%=      5-min Rain = 0
KST1 210940Z 16011KT 08/M04 A2984 RMK A01 T00751038  RH  045%=      5-min Rain = 0
KST1 210945Z 16011KT 08/M04 A2984 RMK A01 T00761038  RH  045%=      5-min Rain = 0
KST1 210950Z 16011KT 08/M04 A2984 RMK A01 T00761038  RH  045%=      5-min Rain = 0
KST1 210955Z 16011KT 08/M04 A2984 RMK A01 T00751038  RH  045%=      5-min Rain = 0
KST1 211000Z 16011KT 07/M04 A2984 RMK A01 T00741037  RH  046%=      5-min Rain = 0
KST1 211005Z 16011KT 07/M04 A2984 RMK A01 T00741037  RH  046%=      5-min Rain = 0
KST1 211010Z 16010KT 08/M04 A2984 RMK A01 T00751037  RH  045%=      5-min Rain = 0
KST1 211015Z 16011KT 08/M04 A2983 RMK A01 T00751037  RH  046%=      5-min Rain = 0
KST1 211020Z 16010KT 08/M04 A2983 RMK A01 T00761037  RH  045%=      5-min Rain = 0
KST1 211025Z 16009KT 08/M04 A2983 RMK A01 T00751037  RH  045%=      5-min Rain = 0
KST1 211030Z 17010KT 07/M04 A2984 RMK A01 T00741037  RH  046%=      5-min Rain = 0
KST1 211035Z 17011KT 08/M04 A2983 RMK A01 T00751036  RH  046%=      5-min Rain = 0
KST1 211040Z 17011KT 08/M04 A2983 RMK A01 T00761036  RH  045%=      5-min Rain = 0
KST1 211045Z 17012KT 08/M04 A2983 RMK A01 T00761035  RH  046%=      5-min Rain = 0
KST1 211050Z 17012KT 08/M04 A2983 RMK A01 T00771035  RH  046%=      5-min Rain = 0
KST1 211055Z 17011KT 08/M04 A2984 RMK A01 T00761035  RH  046%=      5-min Rain = 0
KST1 211100Z 17011KT 08/M03 A2984 RMK A01 T00751034  RH  046%=      5-min Rain = 0
KST1 211105Z 16012KT 08/M03 A2983 RMK A01 T00761034  RH  046%=      5-min Rain = 0
KST1 211110Z 16013KT 08/M03 A2983 RMK A01 T00771034  RH  046%=      5-min Rain = 0
KST1 211115Z 15013KT 08/M03 A2982 RMK A01 T00771034  RH  046%=      5-min Rain = 0
KST1 211120Z 15013KT 08/M03 A2982 RMK A01 T00771034  RH  046%=      5-min Rain = 0
KST1 211125Z 15012KT 08/M03 A2982 RMK A01 T00781034  RH  046%=      5-min Rain = 0
KST1 211130Z 15012KT 08/M03 A2982 RMK A01 T00791034  RH  045%=      5-min Rain = 0
KST1 211135Z 15012KT 08/M03 A2982 RMK A01 T00791033  RH  045%=      5-min Rain = 0
KST1 211140Z 15011KT 08/M03 A2983 RMK A01 T00801033  RH  045%=      5-min Rain = 0
KST1 211145Z 15011KT 08/M03 A2983 RMK A01 T00781032  RH  046%=      5-min Rain = 0
KST1 211150Z 15011KT 08/M03 A2983 RMK A01 T00771032  RH  047%=      5-min Rain = 0
KST1 211155Z 15011KT 08/M03 A2983 RMK A01 T00771031  RH  047%=      5-min Rain = 0
KST1 211200Z 15010KT 08/M03 A2983 RMK A01 T00771031  RH  047%=      5-min Rain = 0
KST1 211205Z 15011KT 08/M03 A2983 RMK A01 T00781030  RH  047%=      5-min Rain = 0
KST1 211210Z 15010KT 08/M03 A2983 RMK A01 T00781029  RH  047%=      5-min Rain = 0
KST1 211215Z 15011KT 08/M03 A2983 RMK A01 T00781028  RH  048%=      5-min Rain = 0
KST1 211220Z 16011KT 08/M03 A2984 RMK A01 T00791027  RH  048%=      5-min Rain = 0
KST1 211225Z 16010KT 08/M03 A2984 RMK A01 T00801026  RH  048%=      5-min Rain = 0
KST1 211230Z 16010KT 08/M03 A2984 RMK A01 T00801025  RH  048%=      5-min Rain = 0
KST1 211235Z 16009KT 08/M02 A2984 RMK A01 T00801024  RH  048%=      5-min Rain = 0
KST1 211240Z 16010KT 08/M02 A2984 RMK A01 T00791024  RH  049%=      5-min Rain = 0
KST1 211245Z 15011KT 08/M02 A2984 RMK A01 T00771023  RH  049%=      5-min Rain = 0
KST1 211250Z 15012KT 08/M02 A2983 RMK A01 T00751023  RH  050%=      5-min Rain = 0
KST1 211255Z 15014KT 08/M02 A2983 RMK A01 T00751021  RH  051%=      5-min Rain = 0
KST1 211300Z 15014KT 07/M02 A2983 RMK A01 T00731021  RH  052%=      5-min Rain = 0
KST1 211305Z 15014KT 07/M02 A2982 RMK A01 T00741020  RH  052%=      5-min Rain = 0
KST1 211310Z 15013KT 08/M02 A2982 RMK A01 T00751019  RH  052%=      5-min Rain = 0
KST1 211315Z 15014KT 08/M02 A2982 RMK A01 T00751018  RH  052%=      5-min Rain = 0
KST1 211320Z 14013KT 08/M02 A2982 RMK A01 T00751018  RH  052%=      5-min Rain = 0
KST1 211325Z 15012KT 08/M02 A2983 RMK A01 T00751018  RH  052%=      5-min Rain = 0
KST1 211330Z 16011KT 08/M02 A2984 RMK A01 T00771017  RH  052%=      5-min Rain = 0
KST1 211335Z 16013KT 08/M02 A2984 RMK A01 T00791017  RH  051%=      5-min Rain = 0
KST1 211340Z 16013KT 08/M02 A2984 RMK A01 T00781016  RH  052%=      5-min Rain = 0
KST1 211345Z 16013KT 08/M02 A2984 RMK A01 T00791016  RH  052%=      5-min Rain = 0
KST1 211350Z 17011KT 08/M02 A2985 RMK A01 T00781016  RH  052%=      5-min Rain = 0
KST1 211355Z 17011KT 08/M02 A2985 RMK A01 T00781016  RH  052%=      5-min Rain = 0
KST1 211400Z 18009KT 08/M02 A2986 RMK A01 T00791015  RH  052%=      5-min Rain = 0
KST1 211405Z 18008KT 08/M02 A2986 RMK A01 T00791015  RH  052%=      5-min Rain = 0
KST1 211410Z 18008KT 08/M02 A2986 RMK A01 T00781015  RH  053%=      5-min Rain = 0
KST1 211415Z 16010KT 08/M02 A2985 RMK A01 T00781015  RH  053%=      5-min Rain = 0
KST1 211420Z 15012KT 08/M01 A2984 RMK A01 T00781014  RH  053%=      5-min Rain = 0
KST1 211425Z 14014KT 08/M01 A2984 RMK A01 T00791014  RH  052%=      5-min Rain = 0
KST1 211430Z 15013KT 08/M01 A2985 RMK A01 T00811014  RH  052%=      5-min Rain = 0
KST1 211435Z 15013KT 08/M01 A2985 RMK A01 T00821013  RH  051%=      5-min Rain = 0
KST1 211440Z 15013KT 08/M01 A2985 RMK A01 T00831013  RH  051%=      5-min Rain = 0
KST1 211445Z 15015KT 08/M01 A2985 RMK A01 T00841013  RH  051%=      5-min Rain = 0
KST1 211450Z 15014KT 09/M01 A2985 RMK A01 T00861012  RH  051%=      5-min Rain = 0
KST1 211455Z 15014KT 09/M01 A2985 RMK A01 T00871012  RH  050%=      5-min Rain = 0
KST1 211500Z 15013G18KT 09/M01 A2985 RMK A01 T00891011  RH  050%=      5-min Rain = 0
KST1 211505Z 16013KT 09/M01 A2986 RMK A01 T00921010  RH  049%=      5-min Rain = 0
KST1 211510Z 15013KT 09/M01 A2986 RMK A01 T00931010  RH  049%=      5-min Rain = 0
KST1 211515Z 16014G19KT 10/M01 A2986 RMK A01 T00951010  RH  048%=      5-min Rain = 0
KST1 211520Z 15014KT 10/M01 A2986 RMK A01 T00961010  RH  048%=      5-min Rain = 0
KST1 211525Z 15016KT 10/M01 A2986 RMK A01 T00971010  RH  048%=      5-min Rain = 0
KST1 211530Z 15019KT 10/M01 A2986 RMK A01 T00991010  RH  047%=      5-min Rain = 0
KST1 211535Z 15020G27KT 10/M01 A2985 RMK A01 T00991010  RH  047%=      5-min Rain = 0
KST1 211540Z 15020KT 10/M01 A2986 RMK A01 T01001010  RH  047%=      5-min Rain = 0
KST1 211545Z 15018KT 10/M01 A2986 RMK A01 T01021009  RH  047%=      5-min Rain = 0
KST1 211550Z 16021G26KT 10/M01 A2987 RMK A01 T01021010  RH  046%=      5-min Rain = 0
KST1 211555Z 17020G25KT 10/M01 A2988 RMK A01 T01031009  RH  046%=      5-min Rain = 0
KST1 211600Z 17019KT 10/M01 A2988 RMK A01 T01031009  RH  046%=      5-min Rain = 0
KST1 211605Z 17020KT 10/M01 A2988 RMK A01 T01021008  RH  047%=      5-min Rain = 0
KST1 211610Z 17020KT 10/M01 A2988 RMK A01 T01031008  RH  047%=      5-min Rain = 0
KST1 211615Z 16020G25KT 10/M01 A2987 RMK A01 T01041007  RH  047%=      5-min Rain = 0
KST1 211620Z 16021G26KT 11/M01 A2987 RMK A01 T01051007  RH  047%=      5-min Rain = 0
KST1 211625Z 17021KT 11/M01 A2987 RMK A01 T01071006  RH  046%=      5-min Rain = 0
KST1 211630Z 16021KT 11/M01 A2987 RMK A01 T01071006  RH  046%=      5-min Rain = 0
KST1 211635Z 16018KT 11/M01 A2988 RMK A01 T01091005  RH  046%=      5-min Rain = 0
KST1 211640Z 16018G23KT 11/M00 A2988 RMK A01 T01101004  RH  046%=      5-min Rain = 0
KST1 211645Z 16019KT 11/M00 A2988 RMK A01 T01091004  RH  046%=      5-min Rain = 0
KST1 211650Z 16017KT 11/M00 A2988 RMK A01 T01111003  RH  046%=      5-min Rain = 0
KST1 211655Z 16020G25KT 11/M00 A2988 RMK A01 T01101004  RH  046%=      5-min Rain = 0
KST1 211700Z 16020G26KT 11/M00 A2988 RMK A01 T01111003  RH  046%=      5-min Rain = 0
KST1 211705Z 16018KT 11/M00 A2988 RMK A01 T01131002  RH  045%=      5-min Rain = 0
KST1 211710Z 16017G22KT 11/M00 A2988 RMK A01 T01141002  RH  045%=      5-min Rain = 0
KST1 211715Z 16019KT 12/M00 A2988 RMK A01 T01151003  RH  045%=      5-min Rain = 0
KST1 211720Z 16019KT 12/M00 A2988 RMK A01 T01161002  RH  045%=      5-min Rain = 0
KST1 211725Z 16018KT 12/00 A2987 RMK A01 T011900-0  RH  044%=      5-min Rain = 0
KST1 211730Z 16018KT 12/00 A2987 RMK A01 T012200-0  RH  043%=      5-min Rain = 0
KST1 211735Z 16019G24KT 12/M00 A2987 RMK A01 T01221001  RH  043%=      5-min Rain = 0
KST1 211740Z 16018KT 12/00 A2987 RMK A01 T012400-0  RH  043%=      5-min Rain = 0
KST1 211745Z 16019G24KT 12/M00 A2987 RMK A01 T01241001  RH  043%=      5-min Rain = 0
KST1 211750Z 16021KT 12/M00 A2987 RMK A01 T01231001  RH  043%=      5-min Rain = 0
KST1 211755Z 17020G26KT 12/M00 A2987 RMK A01 T01231001  RH  043%=      5-min Rain = 0
KST1 211800Z 16019KT 13/00 A2986 RMK A01 T01280001  RH  042%=      5-min Rain = 0
KST1 211805Z 16019KT 13/00 A2986 RMK A01 T01270000  RH  042%=      5-min Rain = 0
KST1 211810Z 16018KT 13/00 A2986 RMK A01 T01280001  RH  042%=      5-min Rain = 0
KST1 211815Z 16020G25KT 13/00 A2985 RMK A01 T01290001  RH  042%=      5-min Rain = 0
KST1 211820Z 16022KT 13/00 A2985 RMK A01 T01290001  RH  042%=      5-min Rain = 0
KST1 211825Z 16021G26KT 13/00 A2985 RMK A01 T01290001  RH  042%=      5-min Rain = 0
KST1 211830Z 16021G26KT 13/00 A2984 RMK A01 T01300003  RH  042%=      5-min Rain = 0
KST1 211835Z 15023KT 13/00 A2983 RMK A01 T01330003  RH  041%=      5-min Rain = 0
KST1 211840Z 16022G28KT 13/00 A2983 RMK A01 T01340004  RH  041%=      5-min Rain = 0
KST1 211845Z 16023KT 14/01 A2983 RMK A01 T01360005  RH  041%=      5-min Rain = 0
KST1 211850Z 16025G30KT 14/00 A2982 RMK A01 T01370004  RH  041%=      5-min Rain = 0
KST1 211855Z 16024KT 14/00 A2982 RMK A01 T01370004  RH  041%=      5-min Rain = 0
KST1 211900Z 15023KT 14/01 A2981 RMK A01 T01380006  RH  041%=      5-min Rain = 0
KST1 211905Z 15023KT 14/01 A2981 RMK A01 T01400007  RH  041%=      5-min Rain = 0
KST1 211910Z 15021KT 14/01 A2981 RMK A01 T01440008  RH  040%=      5-min Rain = 0
KST1 211915Z 15022G27KT 14/01 A298 RMK A01 T01420007  RH  040%=      5-min Rain = 0
KST1 211920Z 16020G27KT 15/01 A298 RMK A01 T01460009  RH  040%=      5-min Rain = 0
KST1 211925Z 15021KT 15/01 A298 RMK A01 T01510011  RH  039%=      5-min Rain = 0
KST1 211930Z 16022KT 15/01 A298 RMK A01 T01490008  RH  039%=      5-min Rain = 0
KST1 211935Z 16022KT 15/01 A298 RMK A01 T01490009  RH  039%=      5-min Rain = 0
KST1 211940Z 15021G27KT 16/01 A298 RMK A01 T01570013  RH  038%=      5-min Rain = 0
KST1 211945Z 16021G27KT 16/01 A298 RMK A01 T01570011  RH  038%=      5-min Rain = 0
KST1 211950Z 15019G25KT 16/01 A298 RMK A01 T01550012  RH  038%=      5-min Rain = 0
KST1 211955Z 15019G24KT 16/01 A298 RMK A01 T01570013  RH  038%=      5-min Rain = 0
KST1 212000Z 15020KT 16/01 A298 RMK A01 T01550012  RH  038%=      5-min Rain = 0
KST1 212005Z 15019G25KT 15/01 A298 RMK A01 T01540012  RH  038%=      5-min Rain = 0
KST1 212010Z 15020G25KT 15/01 A298 RMK A01 T01540012  RH  039%=      5-min Rain = 0
KST1 212015Z 16019G27KT 16/01 A2979 RMK A01 T01550012  RH  038%=      5-min Rain = 0
KST1 212020Z 15017KT 16/01 A2979 RMK A01 T01550013  RH  039%=      5-min Rain = 0
KST1 212025Z 16016KT 16/01 A2979 RMK A01 T01570013  RH  038%=      5-min Rain = 0
KST1 212030Z 16018KT 15/01 A2979 RMK A01 T01530011  RH  039%=      5-min Rain = 0
KST1 212035Z 15017G22KT 15/01 A2979 RMK A01 T01510012  RH  039%=      5-min Rain = 0
KST1 212040Z 16017G22KT 15/01 A2978 RMK A01 T01530013  RH  039%=      5-min Rain = 0
KST1 212045Z 15018G23KT 15/01 A2978 RMK A01 T01540013  RH  039%=      5-min Rain = 0
KST1 212050Z 15018KT 16/01 A2978 RMK A01 T01570014  RH  038%=      5-min Rain = 0
KST1 212055Z 15016G21KT 16/01 A2978 RMK A01 T01570014  RH  039%=      5-min Rain = 0
KST1 212100Z 15018KT 16/01 A2978 RMK A01 T01560014  RH  039%=      5-min Rain = 0
KST1 212105Z 15018KT 16/01 A2978 RMK A01 T01610014  RH  037%=      5-min Rain = 0
KST1 212110Z 15019KT 16/01 A2978 RMK A01 T01630014  RH  037%=      5-min Rain = 0
KST1 212115Z 16020KT 16/01 A2978 RMK A01 T01630013  RH  037%=      5-min Rain = 0
KST1 212120Z 16020KT 17/01 A2978 RMK A01 T01660012  RH  036%=      5-min Rain = 0
KST1 212125Z 16019KT 17/01 A2978 RMK A01 T01660013  RH  036%=      5-min Rain = 0
KST1 212130Z 15021G26KT 17/01 A2977 RMK A01 T01660012  RH  036%=      5-min Rain = 0
KST1 212135Z 15021KT 17/01 A2977 RMK A01 T01660012  RH  036%=      5-min Rain = 0
KST1 212140Z 15020KT 17/01 A2977 RMK A01 T01670013  RH  036%=      5-min Rain = 0
KST1 212145Z 15020KT 17/01 A2977 RMK A01 T01690014  RH  035%=      5-min Rain = 0
KST1 212150Z 14018G24KT 17/01 A2977 RMK A01 T01660013  RH  036%=      5-min Rain = 0
KST1 212155Z 14019KT 17/01 A2977 RMK A01 T01670014  RH  036%=      5-min Rain = 0
KST1 212200Z 14019KT 17/02 A2977 RMK A01 T01660015  RH  037%=      5-min Rain = 0
KST1 212205Z 15020G25KT 17/01 A2976 RMK A01 T01670014  RH  036%=      5-min Rain = 0
KST1 212210Z 15019G24KT 17/01 A2976 RMK A01 T01660014  RH  036%=      5-min Rain = 0
KST1 212215Z 15021G26KT 17/01 A2976 RMK A01 T01670013  RH  036%=      5-min Rain = 0
KST1 212220Z 15022KT 17/01 A2976 RMK A01 T01650011  RH  036%=      5-min Rain = 0
KST1 212225Z 15022KT 17/01 A2975 RMK A01 T01680013  RH  035%=      5-min Rain = 0
KST1 212230Z 15023KT 17/01 A2975 RMK A01 T01660014  RH  036%=      5-min Rain = 0
KST1 212235Z 14023G29KT 17/01 A2976 RMK A01 T01650013  RH  036%=      5-min Rain = 0
KST1 212240Z 14022KT 17/01 A2976 RMK A01 T01650013  RH  036%=      5-min Rain = 0
KST1 212245Z 14022G28KT 16/01 A2976 RMK A01 T01640013  RH  036%=      5-min Rain = 0
KST1 212250Z 14021G27KT 17/01 A2976 RMK A01 T01650012  RH  036%=      5-min Rain = 0
KST1 212255Z 14021KT 16/01 A2976 RMK A01 T01630011  RH  036%=      5-min Rain = 0
KST1 212300Z 14019G25KT 16/01 A2977 RMK A01 T01640011  RH  036%=      5-min Rain = 0
KST1 212305Z 14021KT 16/01 A2977 RMK A01 T01610009  RH  036%=      5-min Rain = 0
KST1 212310Z 14019KT 16/01 A2977 RMK A01 T01600009  RH  036%=      5-min Rain = 0
KST1 212315Z 14018G23KT 16/01 A2977 RMK A01 T01610010  RH  036%=      5-min Rain = 0
KST1 212320Z 13018G23KT 16/01 A2977 RMK A01 T01580009  RH  037%=      5-min Rain = 0
KST1 212325Z 13019KT 16/01 A2977 RMK A01 T01570009  RH  037%=      5-min Rain = 0
KST1 212330Z 13018G23KT 16/01 A2978 RMK A01 T01570010  RH  037%=      5-min Rain = 0
KST1 212335Z 14017G22KT 16/01 A2978 RMK A01 T01550010  RH  038%=      5-min Rain = 0
KST1 212340Z 14018G23KT 15/01 A2978 RMK A01 T01540009  RH  038%=      5-min Rain = 0
KST1 212345Z 13019KT 15/01 A2978 RMK A01 T01510009  RH  038%=      5-min Rain = 0
KST1 212350Z 13019KT 15/01 A2978 RMK A01 T01490009  RH  039%=      5-min Rain = 0
KST1 212355Z 13019G24KT 15/01 A2978 RMK A01 T01480009  RH  039%=      5-min Rain = 0
KST1 220000Z 13019KT 15/01 A2978 RMK A01 T01460009  RH  040%=      5-min Rain = 0
KST1 220005Z 13018KT 14/01 A2979 RMK A01 T01440008  RH  040%=      5-min Rain = 0
KST1 220010Z 13017G23KT 14/01 A2979 RMK A01 T01420008  RH  040%=      5-min Rain = 0
KST1 220015Z 13017KT 14/01 A2979 RMK A01 T01400008  RH  041%=      5-min Rain = 0
KST1 220020Z 13016KT 14/01 A2979 RMK A01 T01380009  RH  042%=      5-min Rain = 0
KST1 220025Z 13015KT 14/01 A2979 RMK A01 T01350010  RH  043%=      5-min Rain = 0
KST1 220030Z 13014KT 13/01 A2979 RMK A01 T01310010  RH  044%=      5-min Rain = 0
KST1 220035Z 13013KT 13/01 A2979 RMK A01 T01280009  RH  045%=      5-min Rain = 0
KST1 220040Z 13015KT 13/01 A298 RMK A01 T01260010  RH  046%=      5-min Rain = 0
KST1 220045Z 13016KT 13/01 A298 RMK A01 T01250011  RH  046%=      5-min Rain = 0
KST1 220050Z 13016KT 12/01 A298 RMK A01 T01230012  RH  047%=      5-min Rain = 0
KST1 220055Z 13017KT 12/01 A298 RMK A01 T01220013  RH  048%=      5-min Rain = 0
KST1 220100Z 13015KT 12/01 A298 RMK A01 T01190012  RH  048%=      5-min Rain = 0
KST1 220105Z 12013KT 12/01 A298 RMK A01 T01160012  RH  049%=      5-min Rain = 0
KST1 220110Z 12013KT 11/01 A2981 RMK A01 T01140012  RH  050%=      5-min Rain = 0
KST1 220115Z 11012KT 11/01 A2981 RMK A01 T01110011  RH  051%=      5-min Rain = 0
KST1 220120Z 11012KT 11/01 A2981 RMK A01 T01100012  RH  052%=      5-min Rain = 0
KST1 220125Z 11013KT 11/01 A2981 RMK A01 T01090013  RH  052%=      5-min Rain = 0
KST1 220130Z 11014KT 11/01 A2981 RMK A01 T01070013  RH  053%=      5-min Rain = 0
KST1 220135Z 11014KT 11/01 A2981 RMK A01 T01050012  RH  053%=      5-min Rain = 0
KST1 220140Z 12015KT 10/01 A2981 RMK A01 T01030012  RH  054%=      5-min Rain = 0
KST1 220145Z 12016KT 10/01 A2981 RMK A01 T01020011  RH  054%=      5-min Rain = 0
KST1 220150Z 13016KT 10/01 A2981 RMK A01 T01010011  RH  054%=      5-min Rain = 0
KST1 220155Z 13015KT 10/01 A2981 RMK A01 T00990010  RH  055%=      5-min Rain = 0
KST1 220200Z 13016KT 10/01 A2981 RMK A01 T00970011  RH  055%=      5-min Rain = 0
KST1 220205Z 13016KT 10/01 A2981 RMK A01 T00960010  RH  056%=      5-min Rain = 0
KST1 220210Z 12015KT 09/01 A2982 RMK A01 T00940009  RH  056%=      5-min Rain = 0
KST1 220215Z 12015KT 09/01 A2982 RMK A01 T00910008  RH  057%=      5-min Rain = 0
KST1 220220Z 12016KT 09/01 A2982 RMK A01 T00910008  RH  057%=      5-min Rain = 0
KST1 220225Z 12015KT 09/01 A2983 RMK A01 T00890007  RH  057%=      5-min Rain = 0
KST1 220230Z 13016KT 09/01 A2983 RMK A01 T00890007  RH  057%=      5-min Rain = 0
KST1 220235Z 13016KT 09/01 A2983 RMK A01 T00880006  RH  057%=      5-min Rain = 0
KST1 220240Z 13016KT 09/01 A2983 RMK A01 T00860006  RH  058%=      5-min Rain = 0
KST1 220245Z 13016KT 09/01 A2983 RMK A01 T00850006  RH  058%=      5-min Rain = 0
KST1 220250Z 12016KT 09/01 A2983 RMK A01 T00850005  RH  058%=      5-min Rain = 0
KST1 220255Z 13016KT 08/00 A2983 RMK A01 T00840004  RH  058%=      5-min Rain = 0
KST1 220300Z 12016KT 08/00 A2984 RMK A01 T00830003  RH  058%=      5-min Rain = 0
KST1 220305Z 12015KT 08/00 A2984 RMK A01 T00800003  RH  059%=      5-min Rain = 0
KST1 220310Z 12015KT 08/00 A2984 RMK A01 T00780001  RH  059%=      5-min Rain = 0
KST1 220315Z 12014KT 08/00 A2984 RMK A01 T007700-0  RH  059%=      5-min Rain = 0
KST1 220320Z 12014KT 08/M00 A2984 RMK A01 T00761001  RH  059%=      5-min Rain = 0
KST1 220325Z 12014KT 08/M00 A2984 RMK A01 T00751002  RH  059%=      5-min Rain = 0
KST1 220330Z 12013KT 07/M00 A2984 RMK A01 T00731004  RH  059%=      5-min Rain = 0
KST1 220335Z 12013KT 07/M01 A2984 RMK A01 T00701005  RH  059%=      5-min Rain = 0
KST1 220340Z 12012KT 07/M01 A2984 RMK A01 T00681006  RH  060%=      5-min Rain = 0
KST1 220345Z 12012KT 07/M01 A2984 RMK A01 T00661007  RH  060%=      5-min Rain = 0
KST1 220350Z 12012KT 07/M01 A2984 RMK A01 T00661008  RH  060%=      5-min Rain = 0
KST1 220355Z 12012KT 07/M01 A2984 RMK A01 T00651008  RH  060%=      5-min Rain = 0
KST1 220400Z 12013KT 06/M01 A2984 RMK A01 T00641007  RH  061%=      5-min Rain = 0
KST1 220405Z 12013KT 06/M01 A2984 RMK A01 T00641006  RH  061%=      5-min Rain = 0
KST1 220410Z 12013KT 06/M01 A2984 RMK A01 T00631005  RH  062%=      5-min Rain = 0
KST1 220415Z 12013KT 06/M00 A2984 RMK A01 T00641003  RH  063%=      5-min Rain = 0
KST1 220420Z 12014KT 06/M00 A2984 RMK A01 T00631002  RH  064%=      5-min Rain = 0
KST1 220425Z 12013KT 06/M00 A2984 RMK A01 T00631001  RH  065%=      5-min Rain = 0
KST1 220430Z 12013KT 06/00 A2985 RMK A01 T00630001  RH  065%=      5-min Rain = 0
KST1 220435Z 12013KT 06/00 A2985 RMK A01 T00620002  RH  066%=      5-min Rain = 0
KST1 220440Z 12012KT 06/00 A2985 RMK A01 T00610003  RH  067%=      5-min Rain = 0
KST1 220445Z 12012KT 06/00 A2985 RMK A01 T00610004  RH  068%=      5-min Rain = 0
KST1 220450Z 12011KT 06/00 A2985 RMK A01 T00600004  RH  068%=      5-min Rain = 0
KST1 220455Z 12011KT 06/00 A2985 RMK A01 T00580004  RH  069%=      5-min Rain = 0
KST1 220500Z 12011KT 06/01 A2985 RMK A01 T00580005  RH  070%=      5-min Rain = 0
KST1 220505Z 12012KT 06/01 A2985 RMK A01 T00580007  RH  071%=      5-min Rain = 0
KST1 220510Z 12013KT 06/01 A2985 RMK A01 T00590010  RH  071%=      5-min Rain = 0
KST1 220515Z 12012KT 06/01 A2985 RMK A01 T00600011  RH  072%=      5-min Rain = 0
KST1 220520Z 12012KT 06/01 A2985 RMK A01 T00600012  RH  072%=      5-min Rain = 0
KST1 220525Z 12012KT 06/01 A2985 RMK A01 T00590012  RH  073%=      5-min Rain = 0
KST1 220530Z 12013KT 06/01 A2985 RMK A01 T00590013  RH  073%=      5-min Rain = 0
KST1 220535Z 12012KT 06/01 A2985 RMK A01 T00580013  RH  074%=      5-min Rain = 0
KST1 220540Z 12014G19KT 06/01 A2986 RMK A01 T00570014  RH  074%=      5-min Rain = 0
KST1 220545Z 12017KT 06/02 A2986 RMK A01 T00590016  RH  075%=      5-min Rain = 0
KST1 220550Z 12016G21KT 06/02 A2985 RMK A01 T00580016  RH  075%=      5-min Rain = 0
KST1 220555Z 12016KT 06/02 A2985 RMK A01 T00570016  RH  076%=      5-min Rain = 0

Page generated in 0.0201 seconds.